sensor_id;sensor_type;location;lat;lon;timestamp;temperature;humidity
13892;DHT22;7016;48.172;8.058;2023-09-18T00:00:54;19.00;99.90
13892;DHT22;7016;48.172;8.058;2023-09-18T00:03:22;19.00;99.90
13892;DHT22;7016;48.172;8.058;2023-09-18T00:05:50;19.00;99.90
13892;DHT22;7016;48.172;8.058;2023-09-18T00:08:17;19.00;99.90
13892;DHT22;7016;48.172;8.058;2023-09-18T00:10:47;18.90;99.90
13892;DHT22;7016;48.172;8.058;2023-09-18T00:13:14;19.00;99.90
13892;DHT22;7016;48.172;8.058;2023-09-18T00:15:40;19.00;99.90
13892;DHT22;7016;48.172;8.058;2023-09-18T00:18:06;19.00;99.90
13892;DHT22;7016;48.172;8.058;2023-09-18T00:20:33;19.00;99.90
13892;DHT22;7016;48.172;8.058;2023-09-18T00:22:58;19.00;99.90
13892;DHT22;7016;48.172;8.058;2023-09-18T00:25:24;19.00;99.90
13892;DHT22;7016;48.172;8.058;2023-09-18T00:27:50;19.00;99.90
13892;DHT22;7016;48.172;8.058;2023-09-18T00:30:17;19.00;99.90
13892;DHT22;7016;48.172;8.058;2023-09-18T00:32:43;19.20;99.90
13892;DHT22;7016;48.172;8.058;2023-09-18T00:35:09;19.50;99.90
13892;DHT22;7016;48.172;8.058;2023-09-18T00:37:34;19.60;99.90
13892;DHT22;7016;48.172;8.058;2023-09-18T00:40:02;19.50;99.90
13892;DHT22;7016;48.172;8.058;2023-09-18T00:42:30;19.40;99.90
13892;DHT22;7016;48.172;8.058;2023-09-18T00:44:56;19.20;99.90
13892;DHT22;7016;48.172;8.058;2023-09-18T00:47:21;19.20;99.90
13892;DHT22;7016;48.172;8.058;2023-09-18T00:49:49;19.20;99.90
13892;DHT22;7016;48.172;8.058;2023-09-18T00:52:17;19.20;99.90
13892;DHT22;7016;48.172;8.058;2023-09-18T00:54:43;19.00;99.90
13892;DHT22;7016;48.172;8.058;2023-09-18T00:57:10;18.90;99.90
13892;DHT22;7016;48.172;8.058;2023-09-18T00:59:37;19.20;99.90
13892;DHT22;7016;48.172;8.058;2023-09-18T01:02:03;19.10;99.90
13892;DHT22;7016;48.172;8.058;2023-09-18T01:04:30;19.10;99.90
13892;DHT22;7016;48.172;8.058;2023-09-18T01:06:58;19.10;99.90
13892;DHT22;7016;48.172;8.058;2023-09-18T01:09:26;19.10;99.90
13892;DHT22;7016;48.172;8.058;2023-09-18T01:17:21;19.00;99.90
13892;DHT22;7016;48.172;8.058;2023-09-18T01:19:47;19.00;99.90
13892;DHT22;7016;48.172;8.058;2023-09-18T01:22:15;18.90;99.90
13892;DHT22;7016;48.172;8.058;2023-09-18T01:24:42;19.00;99.90
13892;DHT22;7016;48.172;8.058;2023-09-18T01:27:10;19.10;99.90
13892;DHT22;7016;48.172;8.058;2023-09-18T01:29:36;19.10;99.90
13892;DHT22;7016;48.172;8.058;2023-09-18T01:32:02;19.10;99.90
13892;DHT22;7016;48.172;8.058;2023-09-18T01:34:37;19.10;99.90
13892;DHT22;7016;48.172;8.058;2023-09-18T01:37:05;19.00;99.90
13892;DHT22;7016;48.172;8.058;2023-09-18T01:39:34;19.00;99.90
13892;DHT22;7016;48.172;8.058;2023-09-18T01:42:01;19.00;99.90
13892;DHT22;7016;48.172;8.058;2023-09-18T01:44:28;18.90;99.90
13892;DHT22;7016;48.172;8.058;2023-09-18T01:46:57;19.00;99.90
13892;DHT22;7016;48.172;8.058;2023-09-18T01:49:32;19.00;99.90
13892;DHT22;7016;48.172;8.058;2023-09-18T01:51:58;19.00;99.90
13892;DHT22;7016;48.172;8.058;2023-09-18T01:54:24;19.00;99.90
13892;DHT22;7016;48.172;8.058;2023-09-18T01:56:51;19.00;99.90
13892;DHT22;7016;48.172;8.058;2023-09-18T01:59:17;19.00;99.90
13892;DHT22;7016;48.172;8.058;2023-09-18T02:01:43;19.00;99.90
13892;DHT22;7016;48.172;8.058;2023-09-18T02:04:09;19.10;99.90
13892;DHT22;7016;48.172;8.058;2023-09-18T02:06:35;19.00;99.90
13892;DHT22;7016;48.172;8.058;2023-09-18T02:09:01;19.00;99.90
13892;DHT22;7016;48.172;8.058;2023-09-18T02:11:27;18.90;99.90
13892;DHT22;7016;48.172;8.058;2023-09-18T02:13:53;19.00;99.90
13892;DHT22;7016;48.172;8.058;2023-09-18T02:16:18;19.00;99.90
13892;DHT22;7016;48.172;8.058;2023-09-18T02:18:48;19.00;99.90
13892;DHT22;7016;48.172;8.058;2023-09-18T02:21:20;19.10;99.90
13892;DHT22;7016;48.172;8.058;2023-09-18T02:23:49;19.00;99.90
13892;DHT22;7016;48.172;8.058;2023-09-18T02:26:19;18.90;99.90
13892;DHT22;7016;48.172;8.058;2023-09-18T02:28:45;19.00;99.90
13892;DHT22;7016;48.172;8.058;2023-09-18T02:31:11;18.90;99.90
13892;DHT22;7016;48.172;8.058;2023-09-18T02:33:40;18.90;99.90
13892;DHT22;7016;48.172;8.058;2023-09-18T02:36:06;18.90;99.90
13892;DHT22;7016;48.172;8.058;2023-09-18T02:38:33;18.90;99.90
13892;DHT22;7016;48.172;8.058;2023-09-18T02:40:59;18.90;99.90
13892;DHT22;7016;48.172;8.058;2023-09-18T02:43:25;18.90;99.90
13892;DHT22;7016;48.172;8.058;2023-09-18T02:45:51;19.00;99.90
13892;DHT22;7016;48.172;8.058;2023-09-18T02:48:18;19.00;99.90
13892;DHT22;7016;48.172;8.058;2023-09-18T02:50:44;18.80;99.90
13892;DHT22;7016;48.172;8.058;2023-09-18T02:53:21;18.80;99.90
13892;DHT22;7016;48.172;8.058;2023-09-18T02:55:51;18.80;99.90
13892;DHT22;7016;48.172;8.058;2023-09-18T02:58:18;18.90;99.90
13892;DHT22;7016;48.172;8.058;2023-09-18T03:00:46;19.00;99.90
13892;DHT22;7016;48.172;8.058;2023-09-18T03:03:12;18.90;99.90
13892;DHT22;7016;48.172;8.058;2023-09-18T03:05:39;18.90;99.90
13892;DHT22;7016;48.172;8.058;2023-09-18T03:08:05;19.00;99.90
13892;DHT22;7016;48.172;8.058;2023-09-18T03:10:35;19.00;99.90
13892;DHT22;7016;48.172;8.058;2023-09-18T03:13:04;19.00;99.90
13892;DHT22;7016;48.172;8.058;2023-09-18T03:15:31;19.10;99.90
13892;DHT22;7016;48.172;8.058;2023-09-18T03:18:00;19.10;99.90
13892;DHT22;7016;48.172;8.058;2023-09-18T03:20:27;19.10;99.90
13892;DHT22;7016;48.172;8.058;2023-09-18T03:22:58;19.10;99.90
13892;DHT22;7016;48.172;8.058;2023-09-18T03:25:24;19.00;99.90
13892;DHT22;7016;48.172;8.058;2023-09-18T03:27:55;19.10;99.90
13892;DHT22;7016;48.172;8.058;2023-09-18T03:30:22;19.10;99.90
13892;DHT22;7016;48.172;8.058;2023-09-18T03:32:49;19.10;99.90
13892;DHT22;7016;48.172;8.058;2023-09-18T03:35:18;19.20;99.90
13892;DHT22;7016;48.172;8.058;2023-09-18T03:37:48;19.20;99.90
13892;DHT22;7016;48.172;8.058;2023-09-18T03:40:15;19.20;99.90
13892;DHT22;7016;48.172;8.058;2023-09-18T03:42:40;19.20;99.90
13892;DHT22;7016;48.172;8.058;2023-09-18T03:45:07;19.20;99.90
13892;DHT22;7016;48.172;8.058;2023-09-18T03:47:37;19.20;99.90
13892;DHT22;7016;48.172;8.058;2023-09-18T03:50:05;19.20;99.90
13892;DHT22;7016;48.172;8.058;2023-09-18T03:52:31;19.20;99.90
13892;DHT22;7016;48.172;8.058;2023-09-18T03:54:57;19.10;99.90
13892;DHT22;7016;48.172;8.058;2023-09-18T03:57:22;19.10;99.90
13892;DHT22;7016;48.172;8.058;2023-09-18T03:59:48;19.10;99.90
13892;DHT22;7016;48.172;8.058;2023-09-18T04:02:13;19.00;99.90
13892;DHT22;7016;48.172;8.058;2023-09-18T04:04:39;19.10;99.90
13892;DHT22;7016;48.172;8.058;2023-09-18T04:07:05;19.10;99.90
13892;DHT22;7016;48.172;8.058;2023-09-18T04:09:31;19.00;99.90
13892;DHT22;7016;48.172;8.058;2023-09-18T04:11:57;18.90;99.90
13892;DHT22;7016;48.172;8.058;2023-09-18T04:14:23;18.50;99.90
13892;DHT22;7016;48.172;8.058;2023-09-18T04:16:50;19.00;99.90
13892;DHT22;7016;48.172;8.058;2023-09-18T04:19:15;19.00;99.90
13892;DHT22;7016;48.172;8.058;2023-09-18T04:21:41;18.90;99.90
13892;DHT22;7016;48.172;8.058;2023-09-18T04:24:07;19.00;99.90
13892;DHT22;7016;48.172;8.058;2023-09-18T04:26:33;18.90;99.90
13892;DHT22;7016;48.172;8.058;2023-09-18T04:29:00;18.90;99.90
13892;DHT22;7016;48.172;8.058;2023-09-18T04:31:26;19.00;99.90
13892;DHT22;7016;48.172;8.058;2023-09-18T04:33:53;19.00;99.90
13892;DHT22;7016;48.172;8.058;2023-09-18T04:36:19;19.00;99.90
13892;DHT22;7016;48.172;8.058;2023-09-18T04:38:45;18.90;99.90
13892;DHT22;7016;48.172;8.058;2023-09-18T04:41:10;18.70;99.90
13892;DHT22;7016;48.172;8.058;2023-09-18T04:43:37;18.80;99.90
13892;DHT22;7016;48.172;8.058;2023-09-18T04:46:06;18.80;99.90
13892;DHT22;7016;48.172;8.058;2023-09-18T04:48:32;18.80;99.90
13892;DHT22;7016;48.172;8.058;2023-09-18T04:50:59;18.80;99.90
13892;DHT22;7016;48.172;8.058;2023-09-18T04:53:26;18.80;99.90
13892;DHT22;7016;48.172;8.058;2023-09-18T04:55:52;18.90;99.90
13892;DHT22;7016;48.172;8.058;2023-09-18T04:58:18;18.80;99.90
13892;DHT22;7016;48.172;8.058;2023-09-18T05:00:44;18.80;99.90
13892;DHT22;7016;48.172;8.058;2023-09-18T05:03:10;18.80;99.90
13892;DHT22;7016;48.172;8.058;2023-09-18T05:05:36;18.80;99.90
13892;DHT22;7016;48.172;8.058;2023-09-18T05:08:05;18.90;99.90
13892;DHT22;7016;48.172;8.058;2023-09-18T05:10:33;18.90;99.90
13892;DHT22;7016;48.172;8.058;2023-09-18T05:12:59;19.00;99.90
13892;DHT22;7016;48.172;8.058;2023-09-18T05:15:25;18.90;99.90
13892;DHT22;7016;48.172;8.058;2023-09-18T05:18:00;18.90;99.90
13892;DHT22;7016;48.172;8.058;2023-09-18T05:20:28;19.00;99.90
13892;DHT22;7016;48.172;8.058;2023-09-18T05:22:55;18.90;99.90
13892;DHT22;7016;48.172;8.058;2023-09-18T05:25:22;19.00;99.90
13892;DHT22;7016;48.172;8.058;2023-09-18T05:27:49;19.00;99.90
13892;DHT22;7016;48.172;8.058;2023-09-18T05:30:25;18.80;99.90
13892;DHT22;7016;48.172;8.058;2023-09-18T05:32:56;18.80;99.90
13892;DHT22;7016;48.172;8.058;2023-09-18T05:35:22;18.80;99.90
13892;DHT22;7016;48.172;8.058;2023-09-18T05:37:49;18.70;99.90
13892;DHT22;7016;48.172;8.058;2023-09-18T05:40:20;18.60;99.90
13892;DHT22;7016;48.172;8.058;2023-09-18T05:42:46;18.70;99.90
13892;DHT22;7016;48.172;8.058;2023-09-18T05:45:13;18.70;99.90
13892;DHT22;7016;48.172;8.058;2023-09-18T05:47:39;18.70;99.90
13892;DHT22;7016;48.172;8.058;2023-09-18T05:50:06;18.60;99.90
13892;DHT22;7016;48.172;8.058;2023-09-18T05:52:34;18.60;99.90
13892;DHT22;7016;48.172;8.058;2023-09-18T05:55:04;18.50;99.90
13892;DHT22;7016;48.172;8.058;2023-09-18T05:57:29;18.50;99.90
13892;DHT22;7016;48.172;8.058;2023-09-18T05:59:55;18.40;99.90
13892;DHT22;7016;48.172;8.058;2023-09-18T06:02:22;18.40;99.90
13892;DHT22;7016;48.172;8.058;2023-09-18T06:04:48;18.40;99.90
13892;DHT22;7016;48.172;8.058;2023-09-18T06:07:14;18.40;99.90
13892;DHT22;7016;48.172;8.058;2023-09-18T06:09:40;18.30;99.90
13892;DHT22;7016;48.172;8.058;2023-09-18T06:12:06;18.30;99.90
13892;DHT22;7016;48.172;8.058;2023-09-18T06:14:32;18.30;99.90
13892;DHT22;7016;48.172;8.058;2023-09-18T06:17:01;18.30;99.90
13892;DHT22;7016;48.172;8.058;2023-09-18T06:19:26;18.40;99.90
13892;DHT22;7016;48.172;8.058;2023-09-18T06:21:52;18.50;99.90
13892;DHT22;7016;48.172;8.058;2023-09-18T06:24:18;18.50;99.90
13892;DHT22;7016;48.172;8.058;2023-09-18T06:26:43;18.40;99.90
13892;DHT22;7016;48.172;8.058;2023-09-18T06:29:09;18.40;99.90
13892;DHT22;7016;48.172;8.058;2023-09-18T06:31:38;18.40;99.90
13892;DHT22;7016;48.172;8.058;2023-09-18T06:34:03;18.50;99.90
13892;DHT22;7016;48.172;8.058;2023-09-18T06:36:30;18.50;99.90
13892;DHT22;7016;48.172;8.058;2023-09-18T06:38:55;18.40;99.90
13892;DHT22;7016;48.172;8.058;2023-09-18T06:41:21;18.30;99.90
13892;DHT22;7016;48.172;8.058;2023-09-18T06:43:46;18.30;99.90
13892;DHT22;7016;48.172;8.058;2023-09-18T06:46:12;18.40;99.90
13892;DHT22;7016;48.172;8.058;2023-09-18T06:48:38;18.40;99.90
13892;DHT22;7016;48.172;8.058;2023-09-18T06:51:03;18.30;99.90
13892;DHT22;7016;48.172;8.058;2023-09-18T06:53:29;18.30;99.90
13892;DHT22;7016;48.172;8.058;2023-09-18T06:55:55;18.20;99.90
13892;DHT22;7016;48.172;8.058;2023-09-18T06:58:21;18.30;99.90
13892;DHT22;7016;48.172;8.058;2023-09-18T07:00:47;18.20;99.90
13892;DHT22;7016;48.172;8.058;2023-09-18T07:03:13;18.10;99.90
13892;DHT22;7016;48.172;8.058;2023-09-18T07:05:40;18.10;99.90
13892;DHT22;7016;48.172;8.058;2023-09-18T07:08:05;18.10;99.90
13892;DHT22;7016;48.172;8.058;2023-09-18T07:10:35;18.20;99.90
13892;DHT22;7016;48.172;8.058;2023-09-18T07:13:01;18.50;99.90
13892;DHT22;7016;48.172;8.058;2023-09-18T07:15:26;18.40;99.90
13892;DHT22;7016;48.172;8.058;2023-09-18T07:17:52;18.40;99.90
13892;DHT22;7016;48.172;8.058;2023-09-18T07:20:17;18.50;99.90
13892;DHT22;7016;48.172;8.058;2023-09-18T07:22:47;18.50;99.90
13892;DHT22;7016;48.172;8.058;2023-09-18T07:25:13;18.40;99.90
13892;DHT22;7016;48.172;8.058;2023-09-18T07:27:39;18.40;99.90
13892;DHT22;7016;48.172;8.058;2023-09-18T07:30:13;18.50;99.90
13892;DHT22;7016;48.172;8.058;2023-09-18T07:32:42;18.50;99.90
13892;DHT22;7016;48.172;8.058;2023-09-18T07:35:09;18.40;99.90
13892;DHT22;7016;48.172;8.058;2023-09-18T07:37:35;18.30;99.90
13892;DHT22;7016;48.172;8.058;2023-09-18T07:40:02;18.30;99.90
13892;DHT22;7016;48.172;8.058;2023-09-18T07:42:28;18.30;99.90
13892;DHT22;7016;48.172;8.058;2023-09-18T07:44:54;18.30;99.90
13892;DHT22;7016;48.172;8.058;2023-09-18T07:47:20;18.30;99.90
13892;DHT22;7016;48.172;8.058;2023-09-18T07:49:46;18.40;99.90
13892;DHT22;7016;48.172;8.058;2023-09-18T07:52:12;18.40;99.90
13892;DHT22;7016;48.172;8.058;2023-09-18T07:54:37;18.50;99.90
13892;DHT22;7016;48.172;8.058;2023-09-18T07:57:03;18.50;99.90
13892;DHT22;7016;48.172;8.058;2023-09-18T07:59:29;18.50;99.90
13892;DHT22;7016;48.172;8.058;2023-09-18T08:01:55;18.50;99.90
13892;DHT22;7016;48.172;8.058;2023-09-18T08:04:21;18.50;99.90
13892;DHT22;7016;48.172;8.058;2023-09-18T08:06:47;18.60;99.90
13892;DHT22;7016;48.172;8.058;2023-09-18T08:09:13;18.60;99.90
13892;DHT22;7016;48.172;8.058;2023-09-18T08:11:44;18.60;99.90
13892;DHT22;7016;48.172;8.058;2023-09-18T08:14:09;18.70;99.90
13892;DHT22;7016;48.172;8.058;2023-09-18T08:16:38;18.70;99.90
13892;DHT22;7016;48.172;8.058;2023-09-18T08:19:04;18.60;99.90
13892;DHT22;7016;48.172;8.058;2023-09-18T08:21:29;18.60;99.90
13892;DHT22;7016;48.172;8.058;2023-09-18T08:23:55;18.40;99.90
13892;DHT22;7016;48.172;8.058;2023-09-18T08:26:22;18.20;99.90
13892;DHT22;7016;48.172;8.058;2023-09-18T08:28:48;18.00;99.90
13892;DHT22;7016;48.172;8.058;2023-09-18T08:31:13;18.00;99.90
13892;DHT22;7016;48.172;8.058;2023-09-18T08:33:42;18.00;99.90
13892;DHT22;7016;48.172;8.058;2023-09-18T08:36:09;18.00;99.90
13892;DHT22;7016;48.172;8.058;2023-09-18T08:38:35;18.10;99.90
13892;DHT22;7016;48.172;8.058;2023-09-18T08:41:00;18.20;99.90
13892;DHT22;7016;48.172;8.058;2023-09-18T08:43:27;18.30;99.90
13892;DHT22;7016;48.172;8.058;2023-09-18T08:45:56;18.30;99.90
13892;DHT22;7016;48.172;8.058;2023-09-18T08:48:28;18.20;99.90
13892;DHT22;7016;48.172;8.058;2023-09-18T08:51:04;18.20;99.90
13892;DHT22;7016;48.172;8.058;2023-09-18T08:53:35;18.20;99.90
13892;DHT22;7016;48.172;8.058;2023-09-18T08:56:02;18.20;99.90
13892;DHT22;7016;48.172;8.058;2023-09-18T08:58:34;18.00;99.90
13892;DHT22;7016;48.172;8.058;2023-09-18T09:01:02;18.30;99.90
13892;DHT22;7016;48.172;8.058;2023-09-18T09:03:29;18.20;99.90
13892;DHT22;7016;48.172;8.058;2023-09-18T09:05:56;18.20;99.90
13892;DHT22;7016;48.172;8.058;2023-09-18T09:08:22;18.20;99.90
13892;DHT22;7016;48.172;8.058;2023-09-18T09:10:48;18.30;99.90
13892;DHT22;7016;48.172;8.058;2023-09-18T09:13:14;18.20;99.90
13892;DHT22;7016;48.172;8.058;2023-09-18T09:15:45;18.30;99.90
13892;DHT22;7016;48.172;8.058;2023-09-18T09:18:12;18.30;99.90
13892;DHT22;7016;48.172;8.058;2023-09-18T09:20:40;18.50;99.90
13892;DHT22;7016;48.172;8.058;2023-09-18T09:23:09;18.40;99.90
13892;DHT22;7016;48.172;8.058;2023-09-18T09:25:35;18.50;99.90
13892;DHT22;7016;48.172;8.058;2023-09-18T09:28:06;18.50;99.90
13892;DHT22;7016;48.172;8.058;2023-09-18T09:30:34;18.60;99.90
13892;DHT22;7016;48.172;8.058;2023-09-18T09:33:04;18.50;99.90
13892;DHT22;7016;48.172;8.058;2023-09-18T09:35:35;18.50;99.90
13892;DHT22;7016;48.172;8.058;2023-09-18T09:38:07;18.50;99.90
13892;DHT22;7016;48.172;8.058;2023-09-18T09:40:33;18.50;99.90
13892;DHT22;7016;48.172;8.058;2023-09-18T09:43:00;18.40;99.90
13892;DHT22;7016;48.172;8.058;2023-09-18T09:45:29;18.40;99.90
13892;DHT22;7016;48.172;8.058;2023-09-18T09:48:05;18.50;99.90
13892;DHT22;7016;48.172;8.058;2023-09-18T09:50:57;18.50;99.90
13892;DHT22;7016;48.172;8.058;2023-09-18T09:53:44;18.50;99.90
13892;DHT22;7016;48.172;8.058;2023-09-18T09:56:12;18.60;99.90
13892;DHT22;7016;48.172;8.058;2023-09-18T09:58:38;18.50;99.90
13892;DHT22;7016;48.172;8.058;2023-09-18T10:01:12;18.40;99.90
13892;DHT22;7016;48.172;8.058;2023-09-18T10:03:44;18.50;99.90
13892;DHT22;7016;48.172;8.058;2023-09-18T10:06:09;18.60;99.90
13892;DHT22;7016;48.172;8.058;2023-09-18T10:08:38;18.60;99.90
13892;DHT22;7016;48.172;8.058;2023-09-18T10:11:09;18.60;99.90
13892;DHT22;7016;48.172;8.058;2023-09-18T10:13:44;18.60;99.90
13892;DHT22;7016;48.172;8.058;2023-09-18T10:16:13;18.70;99.90
13892;DHT22;7016;48.172;8.058;2023-09-18T10:24:33;18.80;99.90
13892;DHT22;7016;48.172;8.058;2023-09-18T10:27:03;18.70;99.90
13892;DHT22;7016;48.172;8.058;2023-09-18T10:29:32;18.80;99.90
13892;DHT22;7016;48.172;8.058;2023-09-18T10:31:58;18.80;99.90
13892;DHT22;7016;48.172;8.058;2023-09-18T10:34:24;18.90;99.90
13892;DHT22;7016;48.172;8.058;2023-09-18T10:36:52;18.90;99.90
13892;DHT22;7016;48.172;8.058;2023-09-18T10:39:19;18.80;99.90
13892;DHT22;7016;48.172;8.058;2023-09-18T10:41:52;18.70;99.90
13892;DHT22;7016;48.172;8.058;2023-09-18T10:44:18;18.70;99.90
13892;DHT22;7016;48.172;8.058;2023-09-18T10:46:51;18.80;99.90
13892;DHT22;7016;48.172;8.058;2023-09-18T10:49:19;18.90;99.90
13892;DHT22;7016;48.172;8.058;2023-09-18T10:51:46;18.80;99.90
13892;DHT22;7016;48.172;8.058;2023-09-18T10:54:17;18.80;99.90
13892;DHT22;7016;48.172;8.058;2023-09-18T10:56:45;19.00;99.90
13892;DHT22;7016;48.172;8.058;2023-09-18T10:59:11;19.00;99.90
13892;DHT22;7016;48.172;8.058;2023-09-18T11:01:37;19.10;99.90
13892;DHT22;7016;48.172;8.058;2023-09-18T11:04:07;19.10;99.90
13892;DHT22;7016;48.172;8.058;2023-09-18T11:09:24;19.20;99.90
13892;DHT22;7016;48.172;8.058;2023-09-18T11:14:56;19.30;99.90
13892;DHT22;7016;48.172;8.058;2023-09-18T11:17:32;19.40;99.90
13892;DHT22;7016;48.172;8.058;2023-09-18T11:20:23;19.40;99.90
13892;DHT22;7016;48.172;8.058;2023-09-18T11:23:09;19.40;99.90
13892;DHT22;7016;48.172;8.058;2023-09-18T11:25:41;19.40;99.90
13892;DHT22;7016;48.172;8.058;2023-09-18T11:28:24;19.50;99.90
13892;DHT22;7016;48.172;8.058;2023-09-18T11:30:52;19.60;99.90
13892;DHT22;7016;48.172;8.058;2023-09-18T11:36:05;19.70;99.90
13892;DHT22;7016;48.172;8.058;2023-09-18T11:38:35;19.70;99.90
13892;DHT22;7016;48.172;8.058;2023-09-18T11:41:26;19.80;99.90
13892;DHT22;7016;48.172;8.058;2023-09-18T11:46:48;19.80;99.90
13892;DHT22;7016;48.172;8.058;2023-09-18T11:49:21;19.80;99.90
13892;DHT22;7016;48.172;8.058;2023-09-18T11:51:53;20.20;99.90
13892;DHT22;7016;48.172;8.058;2023-09-18T11:54:19;19.90;99.90
13892;DHT22;7016;48.172;8.058;2023-09-18T11:56:46;20.00;99.90
13892;DHT22;7016;48.172;8.058;2023-09-18T11:59:12;20.00;99.90
13892;DHT22;7016;48.172;8.058;2023-09-18T12:01:38;20.10;99.90
13892;DHT22;7016;48.172;8.058;2023-09-18T12:04:11;20.10;99.90
13892;DHT22;7016;48.172;8.058;2023-09-18T12:06:41;20.20;99.90
13892;DHT22;7016;48.172;8.058;2023-09-18T12:09:08;20.10;99.90
13892;DHT22;7016;48.172;8.058;2023-09-18T12:11:34;20.20;99.90
13892;DHT22;7016;48.172;8.058;2023-09-18T12:14:01;20.20;99.90
13892;DHT22;7016;48.172;8.058;2023-09-18T12:16:28;20.20;99.90
13892;DHT22;7016;48.172;8.058;2023-09-18T12:18:53;20.20;99.90
13892;DHT22;7016;48.172;8.058;2023-09-18T12:21:19;20.20;99.90
13892;DHT22;7016;48.172;8.058;2023-09-18T12:23:46;20.20;99.90
13892;DHT22;7016;48.172;8.058;2023-09-18T12:26:13;20.20;99.90
13892;DHT22;7016;48.172;8.058;2023-09-18T12:28:40;20.30;99.90
13892;DHT22;7016;48.172;8.058;2023-09-18T12:31:10;20.40;99.90
13892;DHT22;7016;48.172;8.058;2023-09-18T12:33:37;20.40;99.90
13892;DHT22;7016;48.172;8.058;2023-09-18T12:36:03;20.50;99.90
13892;DHT22;7016;48.172;8.058;2023-09-18T12:38:30;20.50;99.90
13892;DHT22;7016;48.172;8.058;2023-09-18T12:40:57;20.50;99.90
13892;DHT22;7016;48.172;8.058;2023-09-18T12:43:36;20.40;99.90
13892;DHT22;7016;48.172;8.058;2023-09-18T12:46:04;20.50;99.90
13892;DHT22;7016;48.172;8.058;2023-09-18T12:48:30;20.50;99.90
13892;DHT22;7016;48.172;8.058;2023-09-18T12:51:02;20.40;99.90
13892;DHT22;7016;48.172;8.058;2023-09-18T12:53:29;20.50;99.90
13892;DHT22;7016;48.172;8.058;2023-09-18T12:55:55;20.50;99.90
13892;DHT22;7016;48.172;8.058;2023-09-18T12:58:29;20.50;99.90
13892;DHT22;7016;48.172;8.058;2023-09-18T13:00:55;20.60;99.90
13892;DHT22;7016;48.172;8.058;2023-09-18T13:03:24;20.60;99.90
13892;DHT22;7016;48.172;8.058;2023-09-18T13:05:51;20.70;99.90
13892;DHT22;7016;48.172;8.058;2023-09-18T13:08:23;20.70;99.90
13892;DHT22;7016;48.172;8.058;2023-09-18T13:10:49;20.70;99.90
13892;DHT22;7016;48.172;8.058;2023-09-18T13:13:22;20.80;99.90
13892;DHT22;7016;48.172;8.058;2023-09-18T13:15:48;20.80;99.90
13892;DHT22;7016;48.172;8.058;2023-09-18T13:18:15;20.80;99.90
13892;DHT22;7016;48.172;8.058;2023-09-18T13:20:42;20.80;99.90
13892;DHT22;7016;48.172;8.058;2023-09-18T13:23:08;20.80;99.90
13892;DHT22;7016;48.172;8.058;2023-09-18T13:25:39;20.90;99.90
13892;DHT22;7016;48.172;8.058;2023-09-18T13:28:07;20.90;99.90
13892;DHT22;7016;48.172;8.058;2023-09-18T13:30:35;21.00;99.90
13892;DHT22;7016;48.172;8.058;2023-09-18T13:33:08;21.00;99.90
13892;DHT22;7016;48.172;8.058;2023-09-18T13:35:36;20.90;99.90
13892;DHT22;7016;48.172;8.058;2023-09-18T13:38:03;20.90;99.90
13892;DHT22;7016;48.172;8.058;2023-09-18T13:40:37;20.90;99.90
13892;DHT22;7016;48.172;8.058;2023-09-18T13:43:04;20.90;99.90
13892;DHT22;7016;48.172;8.058;2023-09-18T13:45:34;20.90;99.90
13892;DHT22;7016;48.172;8.058;2023-09-18T13:48:06;20.90;99.90
13892;DHT22;7016;48.172;8.058;2023-09-18T13:50:32;20.90;99.90
13892;DHT22;7016;48.172;8.058;2023-09-18T13:52:58;21.00;99.90
13892;DHT22;7016;48.172;8.058;2023-09-18T13:55:25;21.00;99.90
13892;DHT22;7016;48.172;8.058;2023-09-18T13:57:51;21.10;99.90
13892;DHT22;7016;48.172;8.058;2023-09-18T14:00:17;21.10;99.90
13892;DHT22;7016;48.172;8.058;2023-09-18T14:02:43;21.10;99.90
13892;DHT22;7016;48.172;8.058;2023-09-18T14:05:09;21.20;99.90
13892;DHT22;7016;48.172;8.058;2023-09-18T14:07:37;21.20;99.90
13892;DHT22;7016;48.172;8.058;2023-09-18T14:10:10;21.20;99.90
13892;DHT22;7016;48.172;8.058;2023-09-18T14:12:39;21.20;99.90
13892;DHT22;7016;48.172;8.058;2023-09-18T14:15:06;21.20;99.90
13892;DHT22;7016;48.172;8.058;2023-09-18T14:17:37;21.30;99.90
13892;DHT22;7016;48.172;8.058;2023-09-18T14:20:08;21.30;99.90
13892;DHT22;7016;48.172;8.058;2023-09-18T14:22:36;21.30;99.90
13892;DHT22;7016;48.172;8.058;2023-09-18T14:25:02;21.30;99.90
13892;DHT22;7016;48.172;8.058;2023-09-18T14:27:34;21.40;99.90
13892;DHT22;7016;48.172;8.058;2023-09-18T14:30:00;21.40;99.90
13892;DHT22;7016;48.172;8.058;2023-09-18T14:32:29;21.30;99.90
13892;DHT22;7016;48.172;8.058;2023-09-18T14:34:55;21.30;99.90
13892;DHT22;7016;48.172;8.058;2023-09-18T14:37:20;21.30;99.90
13892;DHT22;7016;48.172;8.058;2023-09-18T14:39:46;21.40;99.90
13892;DHT22;7016;48.172;8.058;2023-09-18T14:42:12;21.50;99.90
13892;DHT22;7016;48.172;8.058;2023-09-18T14:44:38;21.50;99.90
13892;DHT22;7016;48.172;8.058;2023-09-18T14:47:12;21.50;99.90
13892;DHT22;7016;48.172;8.058;2023-09-18T14:49:38;21.50;99.90
13892;DHT22;7016;48.172;8.058;2023-09-18T14:52:04;21.50;99.90
13892;DHT22;7016;48.172;8.058;2023-09-18T14:54:30;21.40;99.90
13892;DHT22;7016;48.172;8.058;2023-09-18T14:56:56;21.40;99.90
13892;DHT22;7016;48.172;8.058;2023-09-18T14:59:22;21.40;99.90
13892;DHT22;7016;48.172;8.058;2023-09-18T15:01:48;21.50;99.90
13892;DHT22;7016;48.172;8.058;2023-09-18T15:04:14;21.50;99.90
13892;DHT22;7016;48.172;8.058;2023-09-18T15:06:40;21.50;99.90
13892;DHT22;7016;48.172;8.058;2023-09-18T15:09:06;21.50;99.90
13892;DHT22;7016;48.172;8.058;2023-09-18T15:11:33;21.50;99.90
13892;DHT22;7016;48.172;8.058;2023-09-18T15:14:01;21.50;99.90
13892;DHT22;7016;48.172;8.058;2023-09-18T15:16:27;21.50;99.90
13892;DHT22;7016;48.172;8.058;2023-09-18T15:18:55;21.40;99.90
13892;DHT22;7016;48.172;8.058;2023-09-18T15:21:21;21.50;99.90
13892;DHT22;7016;48.172;8.058;2023-09-18T15:23:47;21.40;99.90
13892;DHT22;7016;48.172;8.058;2023-09-18T15:26:15;21.40;99.90
13892;DHT22;7016;48.172;8.058;2023-09-18T15:28:41;21.40;99.90
13892;DHT22;7016;48.172;8.058;2023-09-18T15:31:07;21.50;99.90
13892;DHT22;7016;48.172;8.058;2023-09-18T15:33:32;21.50;99.90
13892;DHT22;7016;48.172;8.058;2023-09-18T15:35:58;21.50;99.90
13892;DHT22;7016;48.172;8.058;2023-09-18T15:38:24;21.50;99.90
13892;DHT22;7016;48.172;8.058;2023-09-18T15:40:50;21.60;99.90
13892;DHT22;7016;48.172;8.058;2023-09-18T15:43:18;21.50;99.90
13892;DHT22;7016;48.172;8.058;2023-09-18T15:45:44;21.60;99.90
13892;DHT22;7016;48.172;8.058;2023-09-18T15:48:10;21.60;99.90
13892;DHT22;7016;48.172;8.058;2023-09-18T15:50:36;21.60;99.90
13892;DHT22;7016;48.172;8.058;2023-09-18T15:53:01;21.50;99.90
13892;DHT22;7016;48.172;8.058;2023-09-18T15:55:30;21.50;99.90
13892;DHT22;7016;48.172;8.058;2023-09-18T15:57:56;21.50;99.90
13892;DHT22;7016;48.172;8.058;2023-09-18T16:00:21;21.40;99.90
13892;DHT22;7016;48.172;8.058;2023-09-18T16:02:47;21.40;99.90
13892;DHT22;7016;48.172;8.058;2023-09-18T16:05:15;21.30;99.90
13892;DHT22;7016;48.172;8.058;2023-09-18T16:07:41;21.30;99.90
13892;DHT22;7016;48.172;8.058;2023-09-18T16:10:09;21.30;99.90